Time;durP1;ratioP1;P1;durP2;ratioP2;P2;SDS_P1;SDS_P2;PMS_P1;PMS_P2;Temp;Humidity;BMP_temperature;BMP_pressure;BME280_temperature;BME280_humidity;BME280_pressure;Samples;Min_cycle;Max_cycle;Signal;HPM_P1;HPM_P2
2023/08/29 00:02:15;;;;;;;14.27;7.40;;;;;;;;;;4417001;32;317277;-85
2023/08/29 00:04:43;;;;;;;13.18;8.35;;;;;;;;;;4406126;32;417125;-85
2023/08/29 00:07:10;;;;;;;13.45;6.93;;;;;;;;;;4416963;32;353915;-84
2023/08/29 00:09:38;;;;;;;10.45;7.47;;;;;;;;;;4409118;32;318045;-83
2023/08/29 00:12:06;;;;;;;8.50;6.60;;;;;;;;;;4419219;32;317566;-84
2023/08/29 00:14:33;;;;;;;9.73;7.50;;;;;;;;;;4408825;32;316627;-85
2023/08/29 00:17:01;;;;;;;14.05;7.22;;;;;;;;;;4418893;32;316493;-84
2023/08/29 00:19:30;;;;;;;8.88;7.00;;;;;;;;;;4408505;32;317584;-85
2023/08/29 00:21:58;;;;;;;9.07;7.15;;;;;;;;;;4417078;32;316837;-85
2023/08/29 00:24:26;;;;;;;15.48;8.35;;;;;;;;;;4408433;32;316720;-85
2023/08/29 00:26:53;;;;;;;7.43;6.62;;;;;;;;;;4416361;32;317694;-84
2023/08/29 00:29:20;;;;;;;13.38;7.62;;;;;;;;;;4409164;32;316825;-85
2023/08/29 00:31:48;;;;;;;15.38;7.87;;;;;;;;;;4418361;32;317685;-86
2023/08/29 00:34:15;;;;;;;10.10;7.32;;;;;;;;;;4418030;32;317710;-84
2023/08/29 00:36:44;;;;;;;12.48;9.10;;;;;;;;;;4405621;32;417391;-83
2023/08/29 00:39:12;;;;;;;12.05;7.18;;;;;;;;;;4419128;32;317801;-82
2023/08/29 00:41:39;;;;;;;13.20;7.28;;;;;;;;;;4407298;32;317669;-82
2023/08/29 00:44:07;;;;;;;13.90;7.90;;;;;;;;;;4418457;32;317654;-79
2023/08/29 00:46:36;;;;;;;10.20;6.80;;;;;;;;;;4406199;32;343592;-83
2023/08/29 00:49:03;;;;;;;12.70;7.35;;;;;;;;;;4417790;32;345906;-79
2023/08/29 00:51:31;;;;;;;14.55;8.35;;;;;;;;;;4407670;32;317911;-80
2023/08/29 00:54:00;;;;;;;10.18;7.53;;;;;;;;;;4417726;32;317784;-86
2023/08/29 00:56:28;;;;;;;18.42;7.85;;;;;;;;;;4407720;32;317840;-81
2023/08/29 00:58:56;;;;;;;17.02;7.80;;;;;;;;;;4418267;32;318034;-81
2023/08/29 01:01:23;;;;;;;17.20;7.30;;;;;;;;;;4406250;32;317808;-83
2023/08/29 01:03:51;;;;;;;9.60;7.00;;;;;;;;;;4418596;32;317634;-81
2023/08/29 01:06:18;;;;;;;9.85;7.60;;;;;;;;;;4402769;32;316630;-82
2023/08/29 01:08:46;;;;;;;14.73;7.30;;;;;;;;;;4418327;32;316861;-86
2023/08/29 01:11:23;;;;;;;11.90;7.15;;;;;;;;;;4416764;32;317878;-81
2023/08/29 01:14:00;;;;;;;14.55;8.05;;;;;;;;;;4405061;32;416961;-82
2023/08/29 01:16:32;;;;;;;10.73;7.93;;;;;;;;;;4406957;32;317592;-83
2023/08/29 01:19:01;;;;;;;10.95;7.53;;;;;;;;;;4418303;32;317880;-79
2023/08/29 01:21:37;;;;;;;14.32;8.55;;;;;;;;;;4405476;32;317806;-79
2023/08/29 01:24:11;;;;;;;15.63;8.77;;;;;;;;;;4418142;32;317652;-82
2023/08/29 01:26:41;;;;;;;15.75;9.43;;;;;;;;;;4405983;32;317724;-84
2023/08/29 01:29:08;;;;;;;11.52;8.02;;;;;;;;;;4415562;32;317957;-85
2023/08/29 01:31:36;;;;;;;13.90;8.18;;;;;;;;;;4406635;32;318028;-84
2023/08/29 01:34:04;;;;;;;13.82;8.35;;;;;;;;;;4416221;32;317616;-82
2023/08/29 01:36:40;;;;;;;11.25;7.75;;;;;;;;;;4406695;32;317818;-80
2023/08/29 01:39:07;;;;;;;10.70;7.10;;;;;;;;;;4417271;32;317996;-84
2023/08/29 01:41:35;;;;;;;10.88;7.93;;;;;;;;;;4406330;32;317818;-79
2023/08/29 01:44:05;;;;;;;8.93;7.37;;;;;;;;;;4416125;32;317943;-86
2023/08/29 01:46:33;;;;;;;9.15;7.75;;;;;;;;;;4407086;32;316855;-83
2023/08/29 01:49:03;;;;;;;13.88;7.82;;;;;;;;;;4416863;32;324204;-84
2023/08/29 01:51:30;;;;;;;16.98;9.55;;;;;;;;;;4406732;32;318035;-79
2023/08/29 01:53:58;;;;;;;12.35;8.48;;;;;;;;;;4417778;32;316705;-78
2023/08/29 01:56:27;;;;;;;11.85;7.47;;;;;;;;;;4406485;32;318096;-87
2023/08/29 01:58:56;;;;;;;9.65;7.18;;;;;;;;;;4417557;32;317676;-80
2023/08/29 02:01:25;;;;;;;17.45;7.25;;;;;;;;;;4411684;32;344902;-79
2023/08/29 02:03:52;;;;;;;12.52;7.12;;;;;;;;;;4416489;32;317540;-87
2023/08/29 02:06:20;;;;;;;18.60;13.73;;;;;;;;;;4407645;32;316446;-83
2023/08/29 02:08:47;;;;;;;19.08;12.70;;;;;;;;;;4416149;32;317582;-86
2023/08/29 02:11:15;;;;;;;14.43;10.15;;;;;;;;;;4416597;32;318779;-79
2023/08/29 02:13:42;;;;;;;11.77;9.27;;;;;;;;;;4405618;32;320144;-79
2023/08/29 02:16:09;;;;;;;12.82;8.13;;;;;;;;;;4416589;32;317828;-82
2023/08/29 02:18:39;;;;;;;10.45;8.32;;;;;;;;;;4407571;32;317805;-79
2023/08/29 02:21:06;;;;;;;10.98;8.18;;;;;;;;;;4415763;32;317568;-79
2023/08/29 02:23:33;;;;;;;10.90;7.90;;;;;;;;;;4405009;32;317646;-84
2023/08/29 02:26:03;;;;;;;12.85;7.62;;;;;;;;;;4417375;32;316769;-79
2023/08/29 02:28:35;;;;;;;12.40;6.62;;;;;;;;;;4404514;32;317932;-79
2023/08/29 02:31:04;;;;;;;14.55;7.87;;;;;;;;;;4417413;32;318082;-79
2023/08/29 02:33:32;;;;;;;10.23;7.35;;;;;;;;;;4404356;32;317874;-79
2023/08/29 02:36:00;;;;;;;13.27;7.80;;;;;;;;;;4415322;32;317934;-85
2023/08/29 02:38:28;;;;;;;13.32;7.10;;;;;;;;;;4406599;32;317861;-79
2023/08/29 02:40:55;;;;;;;10.02;8.27;;;;;;;;;;4415549;32;317667;-81
2023/08/29 02:43:22;;;;;;;8.18;5.72;;;;;;;;;;4404416;32;317889;-79
2023/08/29 02:45:51;;;;;;;6.97;6.03;;;;;;;;;;4416347;32;317049;-80
2023/08/29 02:48:18;;;;;;;10.75;6.32;;;;;;;;;;4404653;32;316890;-80
2023/08/29 02:50:48;;;;;;;6.72;6.05;;;;;;;;;;4416565;32;317767;-78
2023/08/29 02:53:17;;;;;;;12.45;6.62;;;;;;;;;;4416634;32;315744;-81
2023/08/29 02:55:45;;;;;;;11.23;7.40;;;;;;;;;;4403279;32;417876;-79
2023/08/29 02:58:13;;;;;;;9.45;7.45;;;;;;;;;;4414948;32;317758;-79
2023/08/29 03:00:40;;;;;;;14.25;7.28;;;;;;;;;;4404506;32;317087;-81
2023/08/29 03:03:08;;;;;;;10.68;7.37;;;;;;;;;;4417135;32;317879;-79
2023/08/29 03:05:35;;;;;;;10.67;7.33;;;;;;;;;;4405784;32;317919;-79
2023/08/29 03:08:05;;;;;;;10.02;7.70;;;;;;;;;;4415944;32;317773;-79
2023/08/29 03:10:36;;;;;;;11.32;6.70;;;;;;;;;;4406397;32;317949;-86
2023/08/29 03:13:04;;;;;;;9.50;7.45;;;;;;;;;;4416339;32;317703;-85
2023/08/29 03:15:34;;;;;;;7.87;6.22;;;;;;;;;;4406634;32;325247;-82
2023/08/29 03:18:03;;;;;;;15.00;6.97;;;;;;;;;;4401345;32;335521;-77
2023/08/29 03:20:30;;;;;;;9.13;7.67;;;;;;;;;;4404564;32;349953;-77
2023/08/29 03:22:57;;;;;;;10.25;6.85;;;;;;;;;;4415741;32;317104;-80
2023/08/29 03:25:24;;;;;;;12.05;7.00;;;;;;;;;;4405963;32;317663;-80
2023/08/29 03:27:53;;;;;;;12.37;6.55;;;;;;;;;;4416838;32;317886;-80
2023/08/29 03:30:21;;;;;;;12.82;7.05;;;;;;;;;;4404530;32;317941;-82
2023/08/29 03:32:50;;;;;;;12.30;7.10;;;;;;;;;;4416412;32;317573;-79
2023/08/29 03:35:17;;;;;;;13.00;7.62;;;;;;;;;;4416692;32;317802;-77
2023/08/29 03:37:44;;;;;;;10.15;6.97;;;;;;;;;;4403761;32;417055;-79
2023/08/29 03:40:12;;;;;;;12.82;8.00;;;;;;;;;;4416776;32;317662;-81
2023/08/29 03:42:40;;;;;;;13.52;8.18;;;;;;;;;;4406468;32;317686;-78
2023/08/29 03:45:10;;;;;;;8.68;6.78;;;;;;;;;;4414241;32;317809;-77
2023/08/29 03:47:40;;;;;;;8.40;6.55;;;;;;;;;;4405165;32;317040;-80
2023/08/29 03:50:08;;;;;;;10.30;7.25;;;;;;;;;;4415826;32;336798;-80
2023/08/29 03:52:35;;;;;;;16.10;8.20;;;;;;;;;;4405204;32;318198;-79
2023/08/29 03:55:03;;;;;;;21.48;7.55;;;;;;;;;;4415977;32;318678;-77
2023/08/29 03:57:30;;;;;;;11.48;7.75;;;;;;;;;;4405119;32;318341;-77
2023/08/29 03:59:58;;;;;;;16.40;8.80;;;;;;;;;;4416518;32;318320;-77
2023/08/29 04:02:26;;;;;;;9.55;7.00;;;;;;;;;;4405794;32;317892;-78
2023/08/29 04:04:54;;;;;;;10.75;7.93;;;;;;;;;;4414217;32;316898;-84
2023/08/29 04:07:21;;;;;;;18.33;8.45;;;;;;;;;;4406436;32;317952;-88
2023/08/29 04:09:48;;;;;;;8.93;7.75;;;;;;;;;;4414156;32;317767;-85
2023/08/29 04:12:15;;;;;;;10.02;7.90;;;;;;;;;;4416786;32;316711;-88
2023/08/29 04:14:43;;;;;;;10.88;8.23;;;;;;;;;;4406171;32;317895;-85
2023/08/29 04:17:10;;;;;;;12.37;8.13;;;;;;;;;;4415577;32;318225;-87
2023/08/29 04:19:39;;;;;;;12.18;8.68;;;;;;;;;;4406105;32;317988;-77
2023/08/29 04:22:07;;;;;;;24.95;10.32;;;;;;;;;;4416093;32;317967;-77
2023/08/29 04:24:34;;;;;;;20.45;9.43;;;;;;;;;;4404210;32;341125;-79
2023/08/29 04:27:02;;;;;;;18.67;8.90;;;;;;;;;;4415092;32;318068;-81
2023/08/29 04:29:29;;;;;;;18.67;9.50;;;;;;;;;;4405856;32;317935;-78
2023/08/29 04:31:56;;;;;;;21.37;9.27;;;;;;;;;;4414760;32;317766;-76
2023/08/29 04:34:24;;;;;;;11.73;7.93;;;;;;;;;;4406449;32;317959;-79
2023/08/29 04:36:56;;;;;;;11.05;8.15;;;;;;;;;;4414179;32;318027;-87
2023/08/29 04:39:24;;;;;;;20.20;8.48;;;;;;;;;;4411666;32;344089;-78
2023/08/29 04:41:52;;;;;;;26.67;9.45;;;;;;;;;;4417092;32;317801;-83
2023/08/29 04:44:19;;;;;;;18.25;8.30;;;;;;;;;;4405343;32;356825;-82
2023/08/29 04:46:47;;;;;;;18.98;8.18;;;;;;;;;;4418954;32;317738;-83
2023/08/29 04:49:14;;;;;;;15.95;9.02;;;;;;;;;;4418826;32;317826;-83
2023/08/29 04:51:41;;;;;;;14.75;8.35;;;;;;;;;;4406624;32;345606;-79
2023/08/29 04:54:10;;;;;;;9.98;7.55;;;;;;;;;;4415541;32;317900;-79
2023/08/29 04:56:37;;;;;;;24.17;9.25;;;;;;;;;;4407072;32;316988;-86
2023/08/29 04:59:05;;;;;;;14.73;8.90;;;;;;;;;;4416095;32;318042;-84
2023/08/29 05:01:33;;;;;;;16.50;8.98;;;;;;;;;;4406734;32;317909;-84
2023/08/29 05:04:00;;;;;;;20.85;8.73;;;;;;;;;;4417212;32;317973;-84
2023/08/29 05:06:27;;;;;;;15.93;9.25;;;;;;;;;;4407130;32;317885;-81
2023/08/29 05:08:55;;;;;;;12.02;8.82;;;;;;;;;;4418899;32;317859;-86
2023/08/29 05:11:24;;;;;;;14.43;9.50;;;;;;;;;;4403297;32;319657;-80
2023/08/29 05:13:51;;;;;;;18.60;9.80;;;;;;;;;;4418089;32;317988;-81
2023/08/29 05:16:19;;;;;;;22.30;9.13;;;;;;;;;;4406869;32;317708;-81
2023/08/29 05:18:46;;;;;;;17.12;8.63;;;;;;;;;;4417885;32;316532;-82
2023/08/29 05:21:15;;;;;;;13.02;9.77;;;;;;;;;;4416521;32;318060;-88
2023/08/29 05:23:42;;;;;;;19.40;10.55;;;;;;;;;;4408323;32;317777;-83
2023/08/29 05:26:09;;;;;;;21.02;8.85;;;;;;;;;;4416544;32;319014;-84
2023/08/29 05:28:38;;;;;;;11.35;8.57;;;;;;;;;;4407258;32;317930;-82
2023/08/29 05:31:06;;;;;;;13.68;9.10;;;;;;;;;;4417964;32;316677;-81
2023/08/29 05:33:33;;;;;;;13.73;9.07;;;;;;;;;;4407072;32;317777;-83
2023/08/29 05:36:01;;;;;;;19.67;9.00;;;;;;;;;;4416763;32;318075;-87
2023/08/29 05:38:28;;;;;;;18.85;9.80;;;;;;;;;;4407637;32;317599;-81
2023/08/29 05:40:56;;;;;;;14.93;9.32;;;;;;;;;;4417002;32;316529;-86
2023/08/29 05:43:23;;;;;;;13.68;8.90;;;;;;;;;;4407385;32;345493;-83
2023/08/29 05:45:55;;;;;;;15.93;10.10;;;;;;;;;;4416717;32;318070;-81
2023/08/29 05:48:23;;;;;;;12.88;8.43;;;;;;;;;;4407887;32;319009;-82
2023/08/29 05:50:53;;;;;;;16.92;9.48;;;;;;;;;;4417245;32;352058;-83
2023/08/29 05:53:21;;;;;;;11.75;8.90;;;;;;;;;;4406692;32;317825;-85
2023/08/29 05:55:50;;;;;;;11.18;8.07;;;;;;;;;;4417159;32;317727;-90
2023/08/29 05:58:18;;;;;;;12.48;8.38;;;;;;;;;;4413354;32;318086;-83
2023/08/29 06:00:45;;;;;;;15.32;9.80;;;;;;;;;;4417693;32;317912;-82
2023/08/29 06:03:14;;;;;;;14.20;7.53;;;;;;;;;;4415191;32;317953;-82
2023/08/29 06:05:42;;;;;;;11.98;7.95;;;;;;;;;;4405666;32;318193;-82
2023/08/29 06:08:11;;;;;;;16.23;8.93;;;;;;;;;;4417897;32;317847;-84
2023/08/29 06:10:38;;;;;;;18.65;7.53;;;;;;;;;;4407763;32;318463;-83
2023/08/29 06:13:05;;;;;;;19.37;8.75;;;;;;;;;;4416347;32;337329;-82
2023/08/29 06:15:33;;;;;;;15.48;9.07;;;;;;;;;;4406820;32;317850;-81
2023/08/29 06:18:00;;;;;;;12.82;7.75;;;;;;;;;;4416765;32;318025;-82
2023/08/29 06:20:29;;;;;;;9.15;7.28;;;;;;;;;;4405294;32;318066;-83
2023/08/29 06:22:58;;;;;;;11.93;8.80;;;;;;;;;;4414731;32;317073;-82
2023/08/29 06:25:27;;;;;;;18.37;10.13;;;;;;;;;;4406446;32;317896;-82
2023/08/29 06:27:55;;;;;;;18.95;10.18;;;;;;;;;;4417070;32;318757;-82
2023/08/29 06:30:23;;;;;;;19.55;9.25;;;;;;;;;;4404822;32;319532;-81
2023/08/29 06:32:50;;;;;;;19.73;8.63;;;;;;;;;;4416500;32;316755;-82
2023/08/29 06:35:18;;;;;;;13.07;8.98;;;;;;;;;;4414537;32;318040;-82
2023/08/29 06:37:47;;;;;;;14.10;8.25;;;;;;;;;;4415751;32;317939;-81
2023/08/29 06:40:14;;;;;;;18.55;8.43;;;;;;;;;;4414340;32;317784;-81
2023/08/29 06:42:42;;;;;;;15.52;9.13;;;;;;;;;;4406764;32;318026;-81
2023/08/29 06:45:10;;;;;;;15.38;8.50;;;;;;;;;;4414764;32;318958;-81
2023/08/29 06:47:38;;;;;;;13.98;9.50;;;;;;;;;;4404977;32;317711;-81
2023/08/29 06:50:08;;;;;;;14.30;7.53;;;;;;;;;;4416359;32;317678;-82
2023/08/29 06:52:35;;;;;;;21.15;9.05;;;;;;;;;;4405550;32;317684;-81
2023/08/29 06:55:06;;;;;;;13.68;8.18;;;;;;;;;;4416278;32;317685;-83
2023/08/29 06:57:33;;;;;;;10.90;7.62;;;;;;;;;;4405917;32;317803;-83
2023/08/29 07:00:01;;;;;;;9.60;7.70;;;;;;;;;;4417573;32;317957;-82
2023/08/29 07:02:28;;;;;;;12.98;7.32;;;;;;;;;;4406851;32;316940;-83
2023/08/29 07:04:56;;;;;;;18.40;8.32;;;;;;;;;;4414904;32;317936;-82
2023/08/29 07:07:23;;;;;;;12.25;7.20;;;;;;;;;;4407143;32;317735;-83
2023/08/29 07:09:51;;;;;;;15.82;8.25;;;;;;;;;;4416144;32;317773;-82
2023/08/29 07:12:20;;;;;;;18.27;7.65;;;;;;;;;;4405936;32;317694;-84
2023/08/29 07:14:47;;;;;;;14.68;7.55;;;;;;;;;;4416720;32;317813;-82
2023/08/29 07:17:14;;;;;;;16.35;7.30;;;;;;;;;;4417422;32;318546;-81
2023/08/29 07:19:42;;;;;;;11.12;6.45;;;;;;;;;;4405167;32;318542;-82
2023/08/29 07:22:09;;;;;;;12.35;6.78;;;;;;;;;;4416432;32;317933;-81
2023/08/29 07:24:39;;;;;;;13.10;7.95;;;;;;;;;;4404040;32;341272;-81
2023/08/29 07:27:06;;;;;;;14.43;7.93;;;;;;;;;;4416147;32;317950;-82
2023/08/29 07:29:35;;;;;;;13.30;7.37;;;;;;;;;;4403729;32;317889;-82
2023/08/29 07:32:03;;;;;;;10.38;6.90;;;;;;;;;;4415862;32;318014;-82
2023/08/29 07:34:30;;;;;;;15.52;7.25;;;;;;;;;;4406346;32;317862;-82
2023/08/29 07:36:58;;;;;;;16.58;7.87;;;;;;;;;;4416028;32;317978;-81
2023/08/29 07:39:25;;;;;;;14.63;7.70;;;;;;;;;;4405439;32;338831;-81
2023/08/29 07:41:53;;;;;;;13.80;8.40;;;;;;;;;;4416095;32;317871;-82
2023/08/29 07:44:20;;;;;;;13.13;7.07;;;;;;;;;;4405965;32;317707;-81
2023/08/29 07:46:49;;;;;;;17.27;7.45;;;;;;;;;;4415785;32;317908;-82
2023/08/29 07:49:20;;;;;;;13.93;8.07;;;;;;;;;;4416709;32;324366;-82
2023/08/29 07:51:50;;;;;;;10.80;7.93;;;;;;;;;;4404663;32;388061;-82
2023/08/29 07:54:18;;;;;;;10.13;6.43;;;;;;;;;;4414574;32;317685;-82
2023/08/29 07:56:45;;;;;;;11.55;6.75;;;;;;;;;;4415710;32;317846;-81
2023/08/29 07:59:13;;;;;;;20.02;8.27;;;;;;;;;;4415417;32;317925;-81
2023/08/29 08:01:40;;;;;;;12.75;7.22;;;;;;;;;;4405439;32;317882;-82
2023/08/29 08:04:09;;;;;;;11.85;6.95;;;;;;;;;;4415231;32;317774;-81
2023/08/29 08:06:37;;;;;;;12.50;7.12;;;;;;;;;;4405628;32;318003;-81
2023/08/29 08:09:04;;;;;;;14.85;7.82;;;;;;;;;;4418643;32;318035;-81
2023/08/29 08:11:32;;;;;;;20.52;7.50;;;;;;;;;;4408270;32;317822;-81
2023/08/29 08:14:00;;;;;;;15.80;7.80;;;;;;;;;;4417692;32;318092;-81
2023/08/29 08:16:27;;;;;;;22.08;14.02;;;;;;;;;;4407729;32;317830;-81
2023/08/29 08:18:55;;;;;;;25.23;10.93;;;;;;;;;;4417982;32;318795;-82
2023/08/29 08:21:24;;;;;;;16.27;9.40;;;;;;;;;;4408656;32;319514;-82
2023/08/29 08:23:52;;;;;;;21.45;8.95;;;;;;;;;;4419294;32;317878;-81
2023/08/29 08:26:19;;;;;;;13.45;9.45;;;;;;;;;;4407224;32;317769;-81
2023/08/29 08:28:47;;;;;;;12.98;8.50;;;;;;;;;;4418263;32;317713;-81
2023/08/29 08:31:14;;;;;;;11.82;7.95;;;;;;;;;;4418375;32;317840;-81
2023/08/29 08:33:41;;;;;;;17.67;9.35;;;;;;;;;;4407104;32;318521;-81
2023/08/29 08:36:09;;;;;;;12.05;8.52;;;;;;;;;;4417645;32;317847;-81
2023/08/29 08:38:38;;;;;;;8.95;6.97;;;;;;;;;;4407453;32;317797;-82
2023/08/29 08:41:05;;;;;;;9.80;7.53;;;;;;;;;;4418697;32;316616;-81
2023/08/29 08:43:33;;;;;;;15.38;8.20;;;;;;;;;;4407743;32;316960;-81
2023/08/29 08:46:00;;;;;;;14.00;7.72;;;;;;;;;;4418613;32;318004;-82
2023/08/29 08:48:28;;;;;;;13.82;7.87;;;;;;;;;;4406073;32;317972;-82
2023/08/29 08:50:56;;;;;;;12.95;8.80;;;;;;;;;;4417318;32;317905;-82
2023/08/29 08:53:26;;;;;;;15.32;8.40;;;;;;;;;;4405769;32;317801;-82
2023/08/29 08:55:56;;;;;;;16.33;7.85;;;;;;;;;;4419395;32;317894;-82
2023/08/29 08:58:23;;;;;;;12.82;9.10;;;;;;;;;;4409940;32;317956;-82
2023/08/29 09:00:51;;;;;;;10.95;7.85;;;;;;;;;;4418061;32;317805;-81
2023/08/29 09:03:19;;;;;;;15.00;7.37;;;;;;;;;;4407959;32;317715;-84
2023/08/29 09:05:47;;;;;;;14.13;7.78;;;;;;;;;;4417607;32;318051;-81
2023/08/29 09:08:14;;;;;;;18.90;8.50;;;;;;;;;;4418765;32;317749;-82
2023/08/29 09:10:42;;;;;;;12.27;7.70;;;;;;;;;;4406538;32;318073;-81
2023/08/29 09:13:17;;;;;;;14.05;8.35;;;;;;;;;;4418513;32;317803;-80
2023/08/29 09:15:46;;;;;;;13.45;8.20;;;;;;;;;;4405067;32;417113;-80
2023/08/29 09:18:14;;;;;;;15.93;7.85;;;;;;;;;;4417123;32;317671;-80
2023/08/29 09:20:44;;;;;;;25.35;9.98;;;;;;;;;;4407470;32;317708;-81
2023/08/29 09:23:22;;;;;;;18.15;10.77;;;;;;;;;;4417948;32;316813;-81
2023/08/29 09:25:54;;;;;;;26.12;9.23;;;;;;;;;;4405049;32;418377;-81
2023/08/29 09:28:23;;;;;;;15.10;8.90;;;;;;;;;;4407081;32;318062;-81
2023/08/29 09:30:51;;;;;;;15.60;8.63;;;;;;;;;;4416542;32;317958;-81
2023/08/29 09:33:22;;;;;;;13.50;8.65;;;;;;;;;;4407492;32;317891;-82
2023/08/29 09:35:50;;;;;;;16.92;8.20;;;;;;;;;;4417944;32;317696;-80
2023/08/29 09:38:19;;;;;;;11.78;8.66;;;;;;;;;;4414422;32;317784;-81
2023/08/29 09:40:47;;;;;;;21.00;9.45;;;;;;;;;;4418461;32;317539;-80
2023/08/29 09:43:16;;;;;;;18.30;9.40;;;;;;;;;;4417001;32;317832;-82
2023/08/29 09:45:50;;;;;;;11.23;7.90;;;;;;;;;;4404329;32;417083;-81
2023/08/29 09:48:19;;;;;;;14.65;7.50;;;;;;;;;;4413059;32;317693;-83
2023/08/29 09:50:48;;;;;;;14.10;8.27;;;;;;;;;;4415944;32;317799;-82
2023/08/29 09:53:17;;;;;;;15.68;7.60;;;;;;;;;;4417189;32;318089;-82
2023/08/29 09:55:48;;;;;;;16.12;7.85;;;;;;;;;;4403995;32;420525;-82
2023/08/29 09:58:17;;;;;;;8.63;6.60;;;;;;;;;;4417704;32;317878;-82
2023/08/29 10:00:47;;;;;;;15.15;5.80;;;;;;;;;;4403698;32;415758;-82
2023/08/29 10:03:17;;;;;;;9.30;5.72;;;;;;;;;;4415451;32;317722;-82
2023/08/29 10:05:46;;;;;;;11.48;5.47;;;;;;;;;;4403276;32;415924;-82
2023/08/29 10:08:19;;;;;;;12.57;5.07;;;;;;;;;;4416182;32;317912;-82
2023/08/29 10:10:48;;;;;;;18.45;6.22;;;;;;;;;;4404742;32;417542;-82
2023/08/29 10:13:18;;;;;;;11.30;5.87;;;;;;;;;;4414562;32;317772;-82
2023/08/29 10:15:48;;;;;;;6.97;5.30;;;;;;;;;;4403345;32;419818;-83
2023/08/29 10:18:16;;;;;;;11.82;5.85;;;;;;;;;;4417302;32;316629;-82
2023/08/29 10:20:44;;;;;;;9.27;4.87;;;;;;;;;;4402908;32;417064;-82
2023/08/29 10:23:13;;;;;;;14.82;4.93;;;;;;;;;;4416310;32;316864;-81
2023/08/29 10:25:42;;;;;;;11.85;5.00;;;;;;;;;;4406633;32;327876;-82
2023/08/29 10:28:12;;;;;;;9.43;4.82;;;;;;;;;;4417337;32;317729;-82
2023/08/29 10:30:41;;;;;;;8.65;4.90;;;;;;;;;;4406023;32;316617;-82
2023/08/29 10:33:10;;;;;;;11.85;5.15;;;;;;;;;;4416420;32;316641;-82
2023/08/29 10:35:38;;;;;;;10.63;5.18;;;;;;;;;;4404819;32;317878;-81
2023/08/29 10:38:12;;;;;;;13.10;5.20;;;;;;;;;;4416350;32;317801;-82
2023/08/29 10:40:40;;;;;;;8.07;5.37;;;;;;;;;;4406808;32;317735;-81
2023/08/29 10:43:18;;;;;;;13.82;5.35;;;;;;;;;;4416873;32;316622;-82
2023/08/29 10:45:50;;;;;;;14.82;4.85;;;;;;;;;;4404376;32;417312;-83
2023/08/29 10:48:20;;;;;;;13.88;5.22;;;;;;;;;;4417376;32;317623;-81
2023/08/29 10:50:49;;;;;;;7.78;6.00;;;;;;;;;;4403137;32;417884;-82
2023/08/29 10:53:19;;;;;;;8.88;5.72;;;;;;;;;;4416744;32;316634;-82
2023/08/29 10:56:00;;;;;;;8.90;5.53;;;;;;;;;;4404157;32;416269;-82
2023/08/29 10:58:38;;;;;;;6.95;4.87;;;;;;;;;;4404515;32;316812;-82
2023/08/29 11:01:07;;;;;;;14.52;5.72;;;;;;;;;;4414687;32;342146;-82
2023/08/29 11:03:49;;;;;;;9.77;4.57;;;;;;;;;;4405865;32;317723;-82
2023/08/29 11:06:18;;;;;;;10.25;5.40;;;;;;;;;;4415746;32;316699;-82
2023/08/29 11:08:46;;;;;;;13.25;5.90;;;;;;;;;;4403710;32;416892;-82
2023/08/29 11:11:20;;;;;;;11.18;5.93;;;;;;;;;;4416766;32;317834;-82
2023/08/29 11:14:01;;;;;;;13.45;4.53;;;;;;;;;;4402475;32;416873;-84
2023/08/29 11:16:30;;;;;;;7.82;5.07;;;;;;;;;;4406116;32;317837;-84
2023/08/29 11:19:05;;;;;;;9.80;5.50;;;;;;;;;;4417017;32;316644;-82
2023/08/29 11:21:33;;;;;;;12.18;5.03;;;;;;;;;;4406625;32;316647;-81
2023/08/29 11:24:01;;;;;;;11.93;5.30;;;;;;;;;;4416738;32;318098;-84
2023/08/29 11:26:30;;;;;;;8.07;5.12;;;;;;;;;;4403966;32;317876;-83
2023/08/29 11:28:57;;;;;;;10.43;5.97;;;;;;;;;;4415132;32;317052;-83
2023/08/29 11:31:25;;;;;;;10.25;5.62;;;;;;;;;;4405216;32;317693;-83
2023/08/29 11:33:53;;;;;;;8.27;5.47;;;;;;;;;;4416220;32;317582;-82
2023/08/29 11:36:22;;;;;;;7.47;6.07;;;;;;;;;;4402446;32;316582;-82
2023/08/29 11:38:50;;;;;;;8.25;5.60;;;;;;;;;;4415509;32;316799;-83
2023/08/29 11:41:17;;;;;;;11.15;6.18;;;;;;;;;;4416786;32;316906;-84
2023/08/29 11:43:45;;;;;;;12.32;6.85;;;;;;;;;;4405028;32;417176;-82
2023/08/29 11:46:12;;;;;;;11.15;6.72;;;;;;;;;;4419423;32;317718;-83
2023/08/29 11:48:41;;;;;;;17.20;7.55;;;;;;;;;;4408171;32;317705;-82
2023/08/29 11:51:09;;;;;;;7.80;6.15;;;;;;;;;;4419095;32;317670;-82
2023/08/29 11:53:39;;;;;;;12.05;6.30;;;;;;;;;;4407994;32;316831;-83
2023/08/29 11:56:10;;;;;;;7.93;6.37;;;;;;;;;;4417954;32;317708;-82
2023/08/29 11:58:39;;;;;;;12.37;6.28;;;;;;;;;;4407660;32;316701;-82
2023/08/29 12:01:07;;;;;;;11.95;6.50;;;;;;;;;;4418737;32;317634;-82
2023/08/29 12:03:37;;;;;;;13.23;6.17;;;;;;;;;;4406474;32;342054;-82
2023/08/29 12:06:11;;;;;;;7.65;6.85;;;;;;;;;;4419085;32;317897;-81
2023/08/29 12:08:42;;;;;;;10.98;5.78;;;;;;;;;;4408185;32;316785;-83
2023/08/29 12:11:12;;;;;;;13.68;5.72;;;;;;;;;;4418596;32;317801;-82
2023/08/29 12:13:41;;;;;;;12.23;6.47;;;;;;;;;;4408925;32;317663;-82
2023/08/29 12:16:16;;;;;;;13.70;6.25;;;;;;;;;;4418196;32;318031;-82
2023/08/29 12:18:43;;;;;;;8.48;5.82;;;;;;;;;;4404775;32;419967;-82
2023/08/29 12:21:15;;;;;;;11.02;5.45;;;;;;;;;;4419609;32;316712;-82
2023/08/29 12:23:44;;;;;;;14.95;5.90;;;;;;;;;;4407452;32;317863;-82
2023/08/29 12:26:12;;;;;;;9.45;6.20;;;;;;;;;;4419149;32;317779;-82
2023/08/29 12:28:40;;;;;;;8.32;6.68;;;;;;;;;;4408623;32;316628;-82
2023/08/29 12:31:08;;;;;;;14.38;6.70;;;;;;;;;;4419324;32;316906;-83
2023/08/29 12:33:36;;;;;;;13.30;6.43;;;;;;;;;;4410063;32;317812;-82
2023/08/29 12:36:04;;;;;;;12.82;7.10;;;;;;;;;;4418139;32;317681;-83
2023/08/29 12:38:31;;;;;;;13.10;7.07;;;;;;;;;;4403826;32;317619;-82
2023/08/29 12:41:01;;;;;;;10.18;5.93;;;;;;;;;;4416505;32;349182;-81
2023/08/29 12:43:28;;;;;;;12.57;7.12;;;;;;;;;;4408258;32;317951;-82
2023/08/29 12:45:56;;;;;;;17.30;7.72;;;;;;;;;;4417901;32;317742;-82
2023/08/29 12:48:23;;;;;;;17.05;8.25;;;;;;;;;;4407072;32;318341;-82
2023/08/29 12:50:50;;;;;;;10.77;7.72;;;;;;;;;;4418629;32;317742;-81
2023/08/29 12:53:18;;;;;;;12.00;6.70;;;;;;;;;;4406256;32;327391;-81
2023/08/29 12:55:45;;;;;;;8.63;6.53;;;;;;;;;;4418922;32;318054;-81
2023/08/29 12:58:14;;;;;;;12.23;7.10;;;;;;;;;;4408569;32;316812;-80
2023/08/29 13:00:42;;;;;;;9.13;6.57;;;;;;;;;;4419149;32;317859;-81
2023/08/29 13:03:10;;;;;;;9.30;6.93;;;;;;;;;;4408278;32;316946;-81
2023/08/29 13:05:37;;;;;;;11.20;8.38;;;;;;;;;;4419015;32;316797;-81
2023/08/29 13:08:07;;;;;;;15.45;7.82;;;;;;;;;;4417566;32;335498;-82
2023/08/29 13:10:35;;;;;;;10.95;7.18;;;;;;;;;;4405618;32;417874;-84
2023/08/29 13:13:03;;;;;;;19.45;6.85;;;;;;;;;;4416857;32;317719;-81
2023/08/29 13:15:32;;;;;;;16.27;7.35;;;;;;;;;;4404406;32;348425;-83
2023/08/29 13:17:59;;;;;;;9.70;6.72;;;;;;;;;;4417106;32;317938;-83
2023/08/29 13:20:28;;;;;;;11.15;5.93;;;;;;;;;;4406726;32;316640;-82
2023/08/29 13:22:55;;;;;;;10.13;6.78;;;;;;;;;;4418305;32;317854;-82
2023/08/29 13:25:23;;;;;;;11.70;6.32;;;;;;;;;;4407771;32;317964;-82
2023/08/29 13:27:51;;;;;;;10.10;6.22;;;;;;;;;;4416971;32;317758;-83
2023/08/29 13:30:19;;;;;;;12.93;6.87;;;;;;;;;;4407701;32;317665;-82
2023/08/29 13:32:48;;;;;;;11.40;6.28;;;;;;;;;;4416727;32;317833;-82
2023/08/29 13:35:16;;;;;;;14.13;7.12;;;;;;;;;;4405309;32;318067;-82
2023/08/29 13:37:44;;;;;;;10.18;6.75;;;;;;;;;;4418041;32;317993;-81
2023/08/29 13:40:12;;;;;;;9.68;6.22;;;;;;;;;;4407195;32;317660;-81
2023/08/29 13:42:39;;;;;;;14.73;6.00;;;;;;;;;;4418075;32;316939;-81
2023/08/29 13:45:08;;;;;;;9.82;6.68;;;;;;;;;;4405063;32;377643;-83
2023/08/29 13:47:36;;;;;;;16.70;6.28;;;;;;;;;;4417382;32;316826;-82
2023/08/29 13:50:05;;;;;;;12.85;6.35;;;;;;;;;;4417049;32;317651;-81
2023/08/29 13:52:33;;;;;;;9.00;6.05;;;;;;;;;;4404630;32;417939;-81
2023/08/29 13:55:00;;;;;;;8.77;6.32;;;;;;;;;;4417049;32;317100;-83
2023/08/29 13:57:28;;;;;;;8.70;6.80;;;;;;;;;;4406526;32;316962;-81
2023/08/29 13:59:55;;;;;;;11.65;6.22;;;;;;;;;;4416947;32;315718;-82
2023/08/29 14:02:22;;;;;;;14.15;6.68;;;;;;;;;;4407628;32;317649;-82
2023/08/29 14:04:50;;;;;;;13.73;6.10;;;;;;;;;;4417280;32;317742;-81
2023/08/29 14:07:18;;;;;;;9.75;6.43;;;;;;;;;;4404630;32;317799;-81
2023/08/29 14:09:46;;;;;;;8.88;6.45;;;;;;;;;;4417624;32;316788;-81
2023/08/29 14:12:13;;;;;;;7.32;5.37;;;;;;;;;;4404820;32;316790;-82
2023/08/29 14:14:41;;;;;;;18.90;7.57;;;;;;;;;;4416264;32;316930;-82
2023/08/29 14:17:08;;;;;;;15.20;6.43;;;;;;;;;;4404155;32;317897;-82
2023/08/29 14:19:37;;;;;;;10.70;6.95;;;;;;;;;;4416389;32;317852;-80
2023/08/29 14:22:06;;;;;;;15.52;6.00;;;;;;;;;;4416690;32;318016;-80
2023/08/29 14:24:38;;;;;;;12.27;6.22;;;;;;;;;;4402953;32;420265;-80
2023/08/29 14:27:08;;;;;;;11.48;5.65;;;;;;;;;;4414527;32;317998;-80